Terminal Aerodrome Forecast
Issued by NWS Rapid City, SD

Home | Current Version | Previous Version | Graphics & Text | Print | Product List | Glossary On
Versions: 1 2 3 4 5 6 7 8 9 10 11 12 13 14 15 16 17 18
824
FTUS43 KUNR 140520
TAFRAP
TAF
KRAP 140520Z 1406/1506 34020G30KT P6SM BKN050 BKN100
     FM141400 33026G40KT P6SM BKN040 BKN080
     FM142300 31015KT P6SM SCT100=

USA.gov is the U.S. government's official web portal to all federal, state and local government web resources and services.